sensor_id;sensor_type;location;lat;lon;timestamp;P1;durP1;ratioP1;P2;durP2;ratioP2
19343;SDS011;9808;52.402;16.678;2023-04-15T00:01:51;10.57;;;5.43;;
19343;SDS011;9808;52.402;16.678;2023-04-15T00:04:19;10.90;;;5.93;;
19343;SDS011;9808;52.402;16.678;2023-04-15T00:06:50;12.70;;;5.80;;
19343;SDS011;9808;52.402;16.678;2023-04-15T00:09:20;13.30;;;5.90;;
19343;SDS011;9808;52.402;16.678;2023-04-15T00:11:48;13.97;;;6.60;;
19343;SDS011;9808;52.402;16.678;2023-04-15T00:14:16;12.50;;;6.17;;
19343;SDS011;9808;52.402;16.678;2023-04-15T00:16:43;12.82;;;6.47;;
19343;SDS011;9808;52.402;16.678;2023-04-15T00:19:11;15.03;;;6.50;;
19343;SDS011;9808;52.402;16.678;2023-04-15T00:21:38;14.00;;;6.65;;
19343;SDS011;9808;52.402;16.678;2023-04-15T00:24:06;14.30;;;6.33;;
19343;SDS011;9808;52.402;16.678;2023-04-15T00:26:33;12.47;;;6.37;;
19343;SDS011;9808;52.402;16.678;2023-04-15T00:29:01;16.30;;;6.23;;
19343;SDS011;9808;52.402;16.678;2023-04-15T00:31:28;11.20;;;6.37;;
19343;SDS011;9808;52.402;16.678;2023-04-15T00:33:55;12.93;;;6.50;;
19343;SDS011;9808;52.402;16.678;2023-04-15T00:36:23;13.53;;;6.47;;
19343;SDS011;9808;52.402;16.678;2023-04-15T00:38:51;15.37;;;6.17;;
19343;SDS011;9808;52.402;16.678;2023-04-15T00:41:19;12.13;;;5.93;;
19343;SDS011;9808;52.402;16.678;2023-04-15T00:43:46;12.57;;;6.90;;
19343;SDS011;9808;52.402;16.678;2023-04-15T00:46:14;14.47;;;6.33;;
19343;SDS011;9808;52.402;16.678;2023-04-15T00:48:42;12.47;;;6.17;;
19343;SDS011;9808;52.402;16.678;2023-04-15T00:51:09;15.50;;;6.60;;
19343;SDS011;9808;52.402;16.678;2023-04-15T00:53:36;10.20;;;6.40;;
19343;SDS011;9808;52.402;16.678;2023-04-15T00:56:04;13.73;;;6.67;;
19343;SDS011;9808;52.402;16.678;2023-04-15T00:58:31;12.10;;;6.57;;
19343;SDS011;9808;52.402;16.678;2023-04-15T01:00:59;13.47;;;6.67;;
19343;SDS011;9808;52.402;16.678;2023-04-15T01:03:26;13.00;;;6.37;;
19343;SDS011;9808;52.402;16.678;2023-04-15T01:05:54;9.90;;;6.13;;
19343;SDS011;9808;52.402;16.678;2023-04-15T01:08:27;12.13;;;6.43;;
19343;SDS011;9808;52.402;16.678;2023-04-15T01:10:57;12.07;;;6.87;;
19343;SDS011;9808;52.402;16.678;2023-04-15T01:13:28;11.37;;;7.17;;
19343;SDS011;9808;52.402;16.678;2023-04-15T01:15:56;16.83;;;6.53;;
19343;SDS011;9808;52.402;16.678;2023-04-15T01:18:24;11.13;;;6.90;;
19343;SDS011;9808;52.402;16.678;2023-04-15T01:20:51;14.20;;;6.90;;
19343;SDS011;9808;52.402;16.678;2023-04-15T01:23:19;11.70;;;7.23;;
19343;SDS011;9808;52.402;16.678;2023-04-15T01:25:48;14.17;;;7.23;;
19343;SDS011;9808;52.402;16.678;2023-04-15T01:28:15;13.23;;;6.93;;
19343;SDS011;9808;52.402;16.678;2023-04-15T01:30:43;13.10;;;6.90;;
19343;SDS011;9808;52.402;16.678;2023-04-15T01:33:10;13.37;;;7.20;;
19343;SDS011;9808;52.402;16.678;2023-04-15T01:35:37;13.33;;;6.60;;
19343;SDS011;9808;52.402;16.678;2023-04-15T01:38:06;12.87;;;6.80;;
19343;SDS011;9808;52.402;16.678;2023-04-15T01:40:34;12.70;;;7.57;;
19343;SDS011;9808;52.402;16.678;2023-04-15T01:43:01;15.07;;;6.87;;
19343;SDS011;9808;52.402;16.678;2023-04-15T01:45:29;12.17;;;6.47;;
19343;SDS011;9808;52.402;16.678;2023-04-15T01:47:56;14.93;;;6.77;;
19343;SDS011;9808;52.402;16.678;2023-04-15T01:50:23;15.03;;;8.00;;
19343;SDS011;9808;52.402;16.678;2023-04-15T01:52:52;14.40;;;7.20;;
19343;SDS011;9808;52.402;16.678;2023-04-15T01:55:19;12.60;;;6.80;;
19343;SDS011;9808;52.402;16.678;2023-04-15T01:57:46;11.27;;;6.47;;
19343;SDS011;9808;52.402;16.678;2023-04-15T02:00:14;13.83;;;7.03;;
19343;SDS011;9808;52.402;16.678;2023-04-15T02:02:42;13.70;;;7.50;;
19343;SDS011;9808;52.402;16.678;2023-04-15T02:05:10;14.00;;;6.67;;
19343;SDS011;9808;52.402;16.678;2023-04-15T02:07:37;12.03;;;6.73;;
19343;SDS011;9808;52.402;16.678;2023-04-15T02:10:05;13.13;;;7.37;;
19343;SDS011;9808;52.402;16.678;2023-04-15T02:12:32;19.50;;;7.37;;
19343;SDS011;9808;52.402;16.678;2023-04-15T02:14:59;11.60;;;7.10;;
19343;SDS011;9808;52.402;16.678;2023-04-15T02:17:27;11.80;;;7.07;;
19343;SDS011;9808;52.402;16.678;2023-04-15T02:19:54;13.10;;;6.80;;
19343;SDS011;9808;52.402;16.678;2023-04-15T02:22:22;14.47;;;7.43;;
19343;SDS011;9808;52.402;16.678;2023-04-15T02:24:49;14.00;;;7.20;;
19343;SDS011;9808;52.402;16.678;2023-04-15T02:27:16;15.50;;;7.23;;
19343;SDS011;9808;52.402;16.678;2023-04-15T02:29:44;16.70;;;7.10;;
19343;SDS011;9808;52.402;16.678;2023-04-15T02:32:12;15.70;;;7.60;;
19343;SDS011;9808;52.402;16.678;2023-04-15T02:34:39;14.20;;;7.37;;
19343;SDS011;9808;52.402;16.678;2023-04-15T02:37:08;15.03;;;7.47;;
19343;SDS011;9808;52.402;16.678;2023-04-15T02:39:35;15.70;;;7.63;;
19343;SDS011;9808;52.402;16.678;2023-04-15T02:42:03;13.17;;;7.40;;
19343;SDS011;9808;52.402;16.678;2023-04-15T02:44:31;15.27;;;7.50;;
19343;SDS011;9808;52.402;16.678;2023-04-15T02:46:59;15.57;;;7.70;;
19343;SDS011;9808;52.402;16.678;2023-04-15T02:49:31;15.03;;;7.73;;
19343;SDS011;9808;52.402;16.678;2023-04-15T02:51:58;13.13;;;7.07;;
19343;SDS011;9808;52.402;16.678;2023-04-15T02:54:26;15.20;;;7.60;;
19343;SDS011;9808;52.402;16.678;2023-04-15T02:56:54;14.40;;;7.77;;
19343;SDS011;9808;52.402;16.678;2023-04-15T02:59:27;12.80;;;7.47;;
19343;SDS011;9808;52.402;16.678;2023-04-15T03:01:55;13.17;;;7.37;;
19343;SDS011;9808;52.402;16.678;2023-04-15T03:04:29;15.97;;;8.00;;
19343;SDS011;9808;52.402;16.678;2023-04-15T03:07:10;13.50;;;7.10;;
19343;SDS011;9808;52.402;16.678;2023-04-15T03:09:37;14.83;;;8.07;;
19343;SDS011;9808;52.402;16.678;2023-04-15T03:12:14;13.37;;;8.13;;
19343;SDS011;9808;52.402;16.678;2023-04-15T03:14:42;14.07;;;8.17;;
19343;SDS011;9808;52.402;16.678;2023-04-15T03:17:12;15.17;;;8.60;;
19343;SDS011;9808;52.402;16.678;2023-04-15T03:20:14;18.50;;;8.37;;
19343;SDS011;9808;52.402;16.678;2023-04-15T03:22:42;13.73;;;8.23;;
19343;SDS011;9808;52.402;16.678;2023-04-15T03:25:12;14.87;;;7.73;;
19343;SDS011;9808;52.402;16.678;2023-04-15T03:27:40;16.13;;;8.97;;
19343;SDS011;9808;52.402;16.678;2023-04-15T03:30:07;19.00;;;9.00;;
19343;SDS011;9808;52.402;16.678;2023-04-15T03:32:37;18.00;;;9.67;;
19343;SDS011;9808;52.402;16.678;2023-04-15T03:35:07;13.27;;;8.43;;
19343;SDS011;9808;52.402;16.678;2023-04-15T03:37:35;15.97;;;8.53;;
19343;SDS011;9808;52.402;16.678;2023-04-15T03:40:11;15.00;;;9.07;;
19343;SDS011;9808;52.402;16.678;2023-04-15T03:42:41;14.97;;;9.17;;
19343;SDS011;9808;52.402;16.678;2023-04-15T04:04:54;18.07;;;9.73;;
19343;SDS011;9808;52.402;16.678;2023-04-15T04:07:22;17.20;;;9.87;;
19343;SDS011;9808;52.402;16.678;2023-04-15T04:09:53;19.53;;;10.07;;
19343;SDS011;9808;52.402;16.678;2023-04-15T04:15:49;19.13;;;10.33;;
19343;SDS011;9808;52.402;16.678;2023-04-15T04:18:24;17.10;;;9.93;;
19343;SDS011;9808;52.402;16.678;2023-04-15T04:20:51;20.00;;;10.40;;
19343;SDS011;9808;52.402;16.678;2023-04-15T04:34:47;18.60;;;10.40;;
19343;SDS011;9808;52.402;16.678;2023-04-15T04:37:15;17.73;;;10.63;;
19343;SDS011;9808;52.402;16.678;2023-04-15T04:39:45;19.70;;;11.33;;
19343;SDS011;9808;52.402;16.678;2023-04-15T04:42:41;20.50;;;11.27;;
19343;SDS011;9808;52.402;16.678;2023-04-15T04:48:08;17.83;;;10.53;;
19343;SDS011;9808;52.402;16.678;2023-04-15T04:57:47;19.57;;;11.40;;
19343;SDS011;9808;52.402;16.678;2023-04-15T05:00:17;20.40;;;11.67;;
19343;SDS011;9808;52.402;16.678;2023-04-15T05:02:47;19.30;;;11.93;;
19343;SDS011;9808;52.402;16.678;2023-04-15T05:05:32;20.23;;;11.40;;
19343;SDS011;9808;52.402;16.678;2023-04-15T05:11:35;18.10;;;11.30;;
19343;SDS011;9808;52.402;16.678;2023-04-15T05:23:18;22.27;;;11.97;;
19343;SDS011;9808;52.402;16.678;2023-04-15T05:25:45;21.80;;;11.87;;
19343;SDS011;9808;52.402;16.678;2023-04-15T05:28:13;21.60;;;12.63;;
19343;SDS011;9808;52.402;16.678;2023-04-15T05:30:40;20.33;;;12.70;;
19343;SDS011;9808;52.402;16.678;2023-04-15T05:33:07;20.80;;;13.03;;
19343;SDS011;9808;52.402;16.678;2023-04-15T05:35:35;24.47;;;12.43;;
19343;SDS011;9808;52.402;16.678;2023-04-15T05:38:02;20.60;;;13.00;;
19343;SDS011;9808;52.402;16.678;2023-04-15T05:40:29;19.83;;;11.87;;
19343;SDS011;9808;52.402;16.678;2023-04-15T05:42:57;20.60;;;12.60;;
19343;SDS011;9808;52.402;16.678;2023-04-15T05:45:24;20.33;;;12.43;;
19343;SDS011;9808;52.402;16.678;2023-04-15T05:47:52;21.53;;;12.40;;
19343;SDS011;9808;52.402;16.678;2023-04-15T05:50:19;21.70;;;12.63;;
19343;SDS011;9808;52.402;16.678;2023-04-15T05:52:47;18.10;;;11.80;;
19343;SDS011;9808;52.402;16.678;2023-04-15T05:55:14;20.50;;;12.60;;
19343;SDS011;9808;52.402;16.678;2023-04-15T05:57:41;18.93;;;11.93;;
19343;SDS011;9808;52.402;16.678;2023-04-15T06:00:09;22.80;;;12.80;;
19343;SDS011;9808;52.402;16.678;2023-04-15T06:02:36;21.53;;;13.17;;
19343;SDS011;9808;52.402;16.678;2023-04-15T06:05:04;19.20;;;12.00;;
19343;SDS011;9808;52.402;16.678;2023-04-15T06:07:35;18.40;;;11.80;;
19343;SDS011;9808;52.402;16.678;2023-04-15T06:10:03;19.63;;;12.70;;
19343;SDS011;9808;52.402;16.678;2023-04-15T06:12:31;21.00;;;12.53;;
19343;SDS011;9808;52.402;16.678;2023-04-15T06:14:58;20.97;;;13.03;;
19343;SDS011;9808;52.402;16.678;2023-04-15T06:17:26;19.37;;;12.47;;
19343;SDS011;9808;52.402;16.678;2023-04-15T06:19:53;21.53;;;13.10;;
19343;SDS011;9808;52.402;16.678;2023-04-15T06:22:21;17.67;;;11.83;;
19343;SDS011;9808;52.402;16.678;2023-04-15T06:24:48;20.70;;;12.80;;
19343;SDS011;9808;52.402;16.678;2023-04-15T06:27:16;20.87;;;12.67;;
19343;SDS011;9808;52.402;16.678;2023-04-15T06:29:44;19.57;;;12.50;;
19343;SDS011;9808;52.402;16.678;2023-04-15T06:32:11;21.20;;;12.77;;
19343;SDS011;9808;52.402;16.678;2023-04-15T06:34:38;22.47;;;12.97;;
19343;SDS011;9808;52.402;16.678;2023-04-15T06:37:06;21.03;;;12.50;;
19343;SDS011;9808;52.402;16.678;2023-04-15T06:39:35;19.77;;;12.10;;
19343;SDS011;9808;52.402;16.678;2023-04-15T06:42:02;20.17;;;12.63;;
19343;SDS011;9808;52.402;16.678;2023-04-15T06:44:30;20.03;;;11.73;;
19343;SDS011;9808;52.402;16.678;2023-04-15T06:46:59;18.93;;;12.47;;
19343;SDS011;9808;52.402;16.678;2023-04-15T06:49:26;21.47;;;12.17;;
19343;SDS011;9808;52.402;16.678;2023-04-15T06:51:54;18.23;;;12.07;;
19343;SDS011;9808;52.402;16.678;2023-04-15T06:54:21;18.27;;;11.63;;
19343;SDS011;9808;52.402;16.678;2023-04-15T06:56:48;22.83;;;11.93;;
19343;SDS011;9808;52.402;16.678;2023-04-15T06:59:16;20.40;;;11.80;;
19343;SDS011;9808;52.402;16.678;2023-04-15T07:01:44;19.37;;;11.90;;
19343;SDS011;9808;52.402;16.678;2023-04-15T07:04:11;17.90;;;11.53;;
19343;SDS011;9808;52.402;16.678;2023-04-15T07:06:39;20.20;;;11.60;;
19343;SDS011;9808;52.402;16.678;2023-04-15T07:09:07;20.27;;;11.07;;
19343;SDS011;9808;52.402;16.678;2023-04-15T07:11:35;17.47;;;11.00;;
19343;SDS011;9808;52.402;16.678;2023-04-15T07:14:02;17.53;;;10.93;;
19343;SDS011;9808;52.402;16.678;2023-04-15T07:16:29;17.57;;;11.17;;
19343;SDS011;9808;52.402;16.678;2023-04-15T07:18:56;20.77;;;11.07;;
19343;SDS011;9808;52.402;16.678;2023-04-15T07:21:24;17.90;;;10.20;;
19343;SDS011;9808;52.402;16.678;2023-04-15T07:23:52;16.37;;;9.73;;
19343;SDS011;9808;52.402;16.678;2023-04-15T07:26:20;23.00;;;10.67;;
19343;SDS011;9808;52.402;16.678;2023-04-15T07:28:47;18.70;;;11.53;;
19343;SDS011;9808;52.402;16.678;2023-04-15T07:31:14;19.63;;;10.13;;
19343;SDS011;9808;52.402;16.678;2023-04-15T07:33:42;16.93;;;10.47;;
19343;SDS011;9808;52.402;16.678;2023-04-15T07:36:09;18.70;;;11.20;;
19343;SDS011;9808;52.402;16.678;2023-04-15T07:38:37;18.00;;;10.83;;
19343;SDS011;9808;52.402;16.678;2023-04-15T07:41:04;17.57;;;10.70;;
19343;SDS011;9808;52.402;16.678;2023-04-15T07:43:31;16.00;;;10.30;;
19343;SDS011;9808;52.402;16.678;2023-04-15T07:45:58;20.60;;;10.60;;
19343;SDS011;9808;52.402;16.678;2023-04-15T07:48:26;17.43;;;10.67;;
19343;SDS011;9808;52.402;16.678;2023-04-15T07:50:53;16.40;;;9.83;;
19343;SDS011;9808;52.402;16.678;2023-04-15T07:53:20;17.67;;;10.37;;
19343;SDS011;9808;52.402;16.678;2023-04-15T07:55:48;21.77;;;10.57;;
19343;SDS011;9808;52.402;16.678;2023-04-15T07:58:16;18.60;;;9.97;;
19343;SDS011;9808;52.402;16.678;2023-04-15T08:00:43;16.40;;;10.43;;
19343;SDS011;9808;52.402;16.678;2023-04-15T08:03:11;18.50;;;10.83;;
19343;SDS011;9808;52.402;16.678;2023-04-15T08:05:38;17.37;;;9.93;;
19343;SDS011;9808;52.402;16.678;2023-04-15T08:08:06;17.07;;;10.77;;
19343;SDS011;9808;52.402;16.678;2023-04-15T08:10:34;19.07;;;9.57;;
19343;SDS011;9808;52.402;16.678;2023-04-15T08:13:01;17.90;;;10.17;;
19343;SDS011;9808;52.402;16.678;2023-04-15T08:15:28;17.27;;;9.80;;
19343;SDS011;9808;52.402;16.678;2023-04-15T08:17:58;16.77;;;10.40;;
19343;SDS011;9808;52.402;16.678;2023-04-15T08:20:28;16.50;;;10.00;;
19343;SDS011;9808;52.402;16.678;2023-04-15T08:22:55;17.07;;;10.67;;
19343;SDS011;9808;52.402;16.678;2023-04-15T08:25:22;18.43;;;10.23;;
19343;SDS011;9808;52.402;16.678;2023-04-15T08:27:49;15.97;;;9.53;;
19343;SDS011;9808;52.402;16.678;2023-04-15T08:30:17;15.73;;;9.83;;
19343;SDS011;9808;52.402;16.678;2023-04-15T08:32:44;16.20;;;9.50;;
19343;SDS011;9808;52.402;16.678;2023-04-15T08:35:12;14.70;;;9.47;;
19343;SDS011;9808;52.402;16.678;2023-04-15T08:37:40;17.37;;;10.20;;
19343;SDS011;9808;52.402;16.678;2023-04-15T08:40:08;17.20;;;9.80;;
19343;SDS011;9808;52.402;16.678;2023-04-15T08:42:36;17.97;;;9.43;;
19343;SDS011;9808;52.402;16.678;2023-04-15T08:45:08;15.27;;;9.30;;
19343;SDS011;9808;52.402;16.678;2023-04-15T08:47:36;15.50;;;9.23;;
19343;SDS011;9808;52.402;16.678;2023-04-15T08:50:08;19.90;;;9.57;;
19343;SDS011;9808;52.402;16.678;2023-04-15T08:52:36;15.60;;;8.63;;
19343;SDS011;9808;52.402;16.678;2023-04-15T08:55:05;15.13;;;9.17;;
19343;SDS011;9808;52.402;16.678;2023-04-15T08:57:33;15.33;;;9.70;;
19343;SDS011;9808;52.402;16.678;2023-04-15T09:00:02;16.03;;;9.57;;
19343;SDS011;9808;52.402;16.678;2023-04-15T09:02:31;15.60;;;9.57;;
19343;SDS011;9808;52.402;16.678;2023-04-15T09:04:58;12.93;;;8.73;;
19343;SDS011;9808;52.402;16.678;2023-04-15T09:07:26;14.27;;;9.00;;
19343;SDS011;9808;52.402;16.678;2023-04-15T09:09:53;13.57;;;8.90;;
19343;SDS011;9808;52.402;16.678;2023-04-15T09:12:20;14.67;;;9.03;;
19343;SDS011;9808;52.402;16.678;2023-04-15T09:14:47;13.73;;;8.90;;
19343;SDS011;9808;52.402;16.678;2023-04-15T09:17:17;19.10;;;9.53;;
19343;SDS011;9808;52.402;16.678;2023-04-15T09:19:44;14.57;;;8.90;;
19343;SDS011;9808;52.402;16.678;2023-04-15T09:22:12;15.40;;;9.67;;
19343;SDS011;9808;52.402;16.678;2023-04-15T09:24:39;15.30;;;9.00;;
19343;SDS011;9808;52.402;16.678;2023-04-15T09:27:08;14.33;;;9.67;;
19343;SDS011;9808;52.402;16.678;2023-04-15T09:29:36;15.03;;;9.70;;
19343;SDS011;9808;52.402;16.678;2023-04-15T09:32:13;13.43;;;9.33;;
19343;SDS011;9808;52.402;16.678;2023-04-15T09:34:41;13.87;;;9.20;;
19343;SDS011;9808;52.402;16.678;2023-04-15T09:37:08;15.20;;;9.17;;
19343;SDS011;9808;52.402;16.678;2023-04-15T09:39:49;14.13;;;9.73;;
19343;SDS011;9808;52.402;16.678;2023-04-15T09:42:17;16.47;;;9.87;;
19343;SDS011;9808;52.402;16.678;2023-04-15T09:44:52;14.57;;;8.97;;
19343;SDS011;9808;52.402;16.678;2023-04-15T09:47:26;13.03;;;8.80;;
19343;SDS011;9808;52.402;16.678;2023-04-15T09:49:57;15.23;;;9.80;;
19343;SDS011;9808;52.402;16.678;2023-04-15T09:52:24;14.53;;;9.50;;
19343;SDS011;9808;52.402;16.678;2023-04-15T09:54:52;14.47;;;9.30;;
19343;SDS011;9808;52.402;16.678;2023-04-15T09:57:21;14.23;;;9.30;;
19343;SDS011;9808;52.402;16.678;2023-04-15T09:59:50;19.17;;;10.07;;
19343;SDS011;9808;52.402;16.678;2023-04-15T10:02:17;9.70;;;6.00;;
19343;SDS011;9808;52.402;16.678;2023-04-15T10:04:48;9.63;;;5.03;;
19343;SDS011;9808;52.402;16.678;2023-04-15T10:07:16;11.77;;;5.17;;
19343;SDS011;9808;52.402;16.678;2023-04-15T10:09:45;12.30;;;4.93;;
19343;SDS011;9808;52.402;16.678;2023-04-15T10:12:18;10.80;;;5.00;;
19343;SDS011;9808;52.402;16.678;2023-04-15T10:14:52;8.80;;;4.77;;
19343;SDS011;9808;52.402;16.678;2023-04-15T10:17:22;8.00;;;4.30;;
19343;SDS011;9808;52.402;16.678;2023-04-15T10:19:54;9.43;;;4.63;;
19343;SDS011;9808;52.402;16.678;2023-04-15T10:22:22;16.73;;;6.33;;
19343;SDS011;9808;52.402;16.678;2023-04-15T10:24:49;13.83;;;6.97;;
19343;SDS011;9808;52.402;16.678;2023-04-15T10:27:17;15.10;;;7.00;;
19343;SDS011;9808;52.402;16.678;2023-04-15T10:29:45;12.43;;;5.67;;
19343;SDS011;9808;52.402;16.678;2023-04-15T10:32:12;8.23;;;4.57;;
19343;SDS011;9808;52.402;16.678;2023-04-15T10:34:41;8.33;;;4.73;;
19343;SDS011;9808;52.402;16.678;2023-04-15T10:40:40;14.97;;;7.77;;
19343;SDS011;9808;52.402;16.678;2023-04-15T10:43:52;21.70;;;8.90;;
19343;SDS011;9808;52.402;16.678;2023-04-15T10:49:15;20.07;;;8.70;;
19343;SDS011;9808;52.402;16.678;2023-04-15T10:51:44;17.37;;;7.67;;
19343;SDS011;9808;52.402;16.678;2023-04-15T10:56:52;17.13;;;8.13;;
19343;SDS011;9808;52.402;16.678;2023-04-15T10:59:36;14.73;;;8.03;;
19343;SDS011;9808;52.402;16.678;2023-04-15T11:08:09;10.43;;;5.20;;
19343;SDS011;9808;52.402;16.678;2023-04-15T11:13:25;6.60;;;3.80;;
19343;SDS011;9808;52.402;16.678;2023-04-15T11:15:54;5.73;;;3.13;;
19343;SDS011;9808;52.402;16.678;2023-04-15T11:18:28;7.30;;;3.30;;
19343;SDS011;9808;52.402;16.678;2023-04-15T11:20:57;5.67;;;3.00;;
19343;SDS011;9808;52.402;16.678;2023-04-15T11:25:59;7.30;;;2.88;;
19343;SDS011;9808;52.402;16.678;2023-04-15T11:28:29;7.00;;;3.33;;
19343;SDS011;9808;52.402;16.678;2023-04-15T11:30:56;9.43;;;3.13;;
19343;SDS011;9808;52.402;16.678;2023-04-15T11:33:24;7.68;;;3.80;;
19343;SDS011;9808;52.402;16.678;2023-04-15T11:35:52;7.40;;;4.20;;
19343;SDS011;9808;52.402;16.678;2023-04-15T11:38:20;6.80;;;3.07;;
19343;SDS011;9808;52.402;16.678;2023-04-15T11:40:48;6.43;;;3.17;;
19343;SDS011;9808;52.402;16.678;2023-04-15T11:43:21;6.23;;;3.00;;
19343;SDS011;9808;52.402;16.678;2023-04-15T11:48:20;6.40;;;3.33;;
19343;SDS011;9808;52.402;16.678;2023-04-15T11:50:58;10.73;;;3.67;;
19343;SDS011;9808;52.402;16.678;2023-04-15T11:53:35;6.23;;;3.30;;
19343;SDS011;9808;52.402;16.678;2023-04-15T11:56:04;6.83;;;3.60;;
19343;SDS011;9808;52.402;16.678;2023-04-15T11:58:33;7.30;;;3.90;;
19343;SDS011;9808;52.402;16.678;2023-04-15T12:01:00;6.90;;;3.53;;
19343;SDS011;9808;52.402;16.678;2023-04-15T12:03:29;7.70;;;3.60;;
19343;SDS011;9808;52.402;16.678;2023-04-15T12:11:34;8.88;;;4.47;;
19343;SDS011;9808;52.402;16.678;2023-04-15T12:16:29;8.68;;;4.00;;
19343;SDS011;9808;52.402;16.678;2023-04-15T12:18:57;16.03;;;7.27;;
19343;SDS011;9808;52.402;16.678;2023-04-15T12:21:25;13.02;;;5.93;;
19343;SDS011;9808;52.402;16.678;2023-04-15T12:23:55;7.32;;;3.85;;
19343;SDS011;9808;52.402;16.678;2023-04-15T12:26:26;13.90;;;6.30;;
19343;SDS011;9808;52.402;16.678;2023-04-15T12:28:54;8.47;;;4.23;;
19343;SDS011;9808;52.402;16.678;2023-04-15T12:31:22;8.47;;;4.07;;
19343;SDS011;9808;52.402;16.678;2023-04-15T12:33:50;8.57;;;3.70;;
19343;SDS011;9808;52.402;16.678;2023-04-15T12:36:17;5.47;;;2.83;;
19343;SDS011;9808;52.402;16.678;2023-04-15T12:38:44;7.00;;;3.13;;
19343;SDS011;9808;52.402;16.678;2023-04-15T12:41:11;10.43;;;5.05;;
19343;SDS011;9808;52.402;16.678;2023-04-15T12:43:39;10.20;;;4.93;;
19343;SDS011;9808;52.402;16.678;2023-04-15T12:46:07;9.27;;;4.43;;
19343;SDS011;9808;52.402;16.678;2023-04-15T12:48:35;10.38;;;4.53;;
19343;SDS011;9808;52.402;16.678;2023-04-15T12:51:02;8.10;;;4.10;;
19343;SDS011;9808;52.402;16.678;2023-04-15T12:53:31;8.63;;;3.80;;
19343;SDS011;9808;52.402;16.678;2023-04-15T12:55:58;7.33;;;3.37;;
19343;SDS011;9808;52.402;16.678;2023-04-15T12:58:25;7.20;;;3.25;;
19343;SDS011;9808;52.402;16.678;2023-04-15T13:00:53;7.90;;;3.22;;
19343;SDS011;9808;52.402;16.678;2023-04-15T13:03:20;8.33;;;4.13;;
19343;SDS011;9808;52.402;16.678;2023-04-15T13:05:47;8.03;;;4.10;;
19343;SDS011;9808;52.402;16.678;2023-04-15T13:08:15;6.03;;;3.10;;
19343;SDS011;9808;52.402;16.678;2023-04-15T13:10:42;8.03;;;3.67;;
19343;SDS011;9808;52.402;16.678;2023-04-15T13:13:09;6.93;;;3.90;;
19343;SDS011;9808;52.402;16.678;2023-04-15T13:15:37;11.15;;;4.43;;
19343;SDS011;9808;52.402;16.678;2023-04-15T13:18:05;10.20;;;4.13;;
19343;SDS011;9808;52.402;16.678;2023-04-15T13:20:32;9.60;;;4.63;;
19343;SDS011;9808;52.402;16.678;2023-04-15T13:23:00;8.53;;;4.73;;
19343;SDS011;9808;52.402;16.678;2023-04-15T13:25:27;12.13;;;4.18;;
19343;SDS011;9808;52.402;16.678;2023-04-15T13:27:54;8.85;;;4.30;;
19343;SDS011;9808;52.402;16.678;2023-04-15T13:30:23;8.85;;;4.78;;
19343;SDS011;9808;52.402;16.678;2023-04-15T13:32:50;9.25;;;5.10;;
19343;SDS011;9808;52.402;16.678;2023-04-15T13:35:19;8.83;;;4.50;;
19343;SDS011;9808;52.402;16.678;2023-04-15T13:37:46;9.87;;;4.80;;
19343;SDS011;9808;52.402;16.678;2023-04-15T13:40:14;9.35;;;4.47;;
19343;SDS011;9808;52.402;16.678;2023-04-15T13:42:41;9.95;;;4.30;;
19343;SDS011;9808;52.402;16.678;2023-04-15T13:45:09;9.23;;;4.43;;
19343;SDS011;9808;52.402;16.678;2023-04-15T13:47:36;9.63;;;5.13;;
19343;SDS011;9808;52.402;16.678;2023-04-15T13:50:04;8.23;;;4.32;;
19343;SDS011;9808;52.402;16.678;2023-04-15T13:52:31;10.97;;;5.70;;
19343;SDS011;9808;52.402;16.678;2023-04-15T13:54:59;14.18;;;7.88;;
19343;SDS011;9808;52.402;16.678;2023-04-15T13:57:44;16.80;;;8.45;;
19343;SDS011;9808;52.402;16.678;2023-04-15T14:00:12;13.27;;;7.60;;
19343;SDS011;9808;52.402;16.678;2023-04-15T14:02:41;10.80;;;6.40;;
19343;SDS011;9808;52.402;16.678;2023-04-15T14:05:11;11.73;;;5.43;;
19343;SDS011;9808;52.402;16.678;2023-04-15T14:07:39;13.13;;;6.50;;
19343;SDS011;9808;52.402;16.678;2023-04-15T14:10:06;12.68;;;6.55;;
19343;SDS011;9808;52.402;16.678;2023-04-15T14:12:34;12.57;;;6.32;;
19343;SDS011;9808;52.402;16.678;2023-04-15T14:15:01;12.77;;;6.90;;
19343;SDS011;9808;52.402;16.678;2023-04-15T14:17:28;11.75;;;6.68;;
19343;SDS011;9808;52.402;16.678;2023-04-15T14:19:56;12.52;;;6.75;;
19343;SDS011;9808;52.402;16.678;2023-04-15T14:22:23;12.88;;;6.05;;
19343;SDS011;9808;52.402;16.678;2023-04-15T14:24:51;11.10;;;6.45;;
19343;SDS011;9808;52.402;16.678;2023-04-15T14:27:19;11.82;;;6.38;;
19343;SDS011;9808;52.402;16.678;2023-04-15T14:29:47;12.27;;;7.20;;
19343;SDS011;9808;52.402;16.678;2023-04-15T14:32:14;11.13;;;6.60;;
19343;SDS011;9808;52.402;16.678;2023-04-15T14:34:42;11.77;;;6.72;;
19343;SDS011;9808;52.402;16.678;2023-04-15T14:37:09;13.20;;;7.50;;
19343;SDS011;9808;52.402;16.678;2023-04-15T14:39:36;14.15;;;7.50;;
19343;SDS011;9808;52.402;16.678;2023-04-15T14:42:05;12.77;;;7.57;;
19343;SDS011;9808;52.402;16.678;2023-04-15T14:44:35;13.02;;;7.70;;
19343;SDS011;9808;52.402;16.678;2023-04-15T14:47:03;16.88;;;9.05;;
19343;SDS011;9808;52.402;16.678;2023-04-15T14:49:30;13.38;;;8.10;;
19343;SDS011;9808;52.402;16.678;2023-04-15T14:51:58;14.52;;;9.38;;
19343;SDS011;9808;52.402;16.678;2023-04-15T14:54:25;15.88;;;9.30;;
19343;SDS011;9808;52.402;16.678;2023-04-15T14:56:53;16.98;;;9.70;;
19343;SDS011;9808;52.402;16.678;2023-04-15T14:59:21;18.48;;;11.05;;
19343;SDS011;9808;52.402;16.678;2023-04-15T15:01:48;17.38;;;10.93;;
19343;SDS011;9808;52.402;16.678;2023-04-15T15:04:16;15.25;;;9.32;;
19343;SDS011;9808;52.402;16.678;2023-04-15T15:06:43;17.35;;;10.18;;
19343;SDS011;9808;52.402;16.678;2023-04-15T15:09:14;15.73;;;8.77;;
19343;SDS011;9808;52.402;16.678;2023-04-15T15:11:41;16.03;;;10.00;;
19343;SDS011;9808;52.402;16.678;2023-04-15T15:14:08;13.77;;;8.75;;
19343;SDS011;9808;52.402;16.678;2023-04-15T15:16:36;15.60;;;8.40;;
19343;SDS011;9808;52.402;16.678;2023-04-15T15:19:04;14.05;;;8.52;;
19343;SDS011;9808;52.402;16.678;2023-04-15T15:21:32;13.95;;;8.77;;
19343;SDS011;9808;52.402;16.678;2023-04-15T15:23:59;16.60;;;9.57;;
19343;SDS011;9808;52.402;16.678;2023-04-15T15:26:27;15.80;;;9.02;;
19343;SDS011;9808;52.402;16.678;2023-04-15T15:28:54;15.27;;;8.50;;
19343;SDS011;9808;52.402;16.678;2023-04-15T15:31:22;15.00;;;8.88;;
19343;SDS011;9808;52.402;16.678;2023-04-15T15:33:49;16.17;;;9.15;;
19343;SDS011;9808;52.402;16.678;2023-04-15T15:36:18;17.60;;;9.55;;
19343;SDS011;9808;52.402;16.678;2023-04-15T15:38:45;14.32;;;9.13;;
19343;SDS011;9808;52.402;16.678;2023-04-15T15:41:12;21.45;;;11.18;;
19343;SDS011;9808;52.402;16.678;2023-04-15T15:43:40;17.67;;;9.85;;
19343;SDS011;9808;52.402;16.678;2023-04-15T15:46:08;18.48;;;10.20;;
19343;SDS011;9808;52.402;16.678;2023-04-15T15:48:35;15.98;;;9.55;;
19343;SDS011;9808;52.402;16.678;2023-04-15T15:51:03;13.52;;;8.07;;
19343;SDS011;9808;52.402;16.678;2023-04-15T15:53:30;14.88;;;8.45;;
19343;SDS011;9808;52.402;16.678;2023-04-15T15:55:57;14.70;;;8.73;;
19343;SDS011;9808;52.402;16.678;2023-04-15T15:58:25;15.35;;;9.10;;
19343;SDS011;9808;52.402;16.678;2023-04-15T16:00:52;13.77;;;8.83;;
19343;SDS011;9808;52.402;16.678;2023-04-15T16:03:19;13.38;;;8.52;;
19343;SDS011;9808;52.402;16.678;2023-04-15T16:05:47;14.98;;;8.48;;
19343;SDS011;9808;52.402;16.678;2023-04-15T16:08:17;14.52;;;8.68;;
19343;SDS011;9808;52.402;16.678;2023-04-15T16:10:45;13.25;;;8.35;;